TimeCDT,TemperatureF,Dew PointF,Humidity,Sea Level PressureIn,VisibilityMPH,Wind Direction,Wind SpeedMPH,Gust SpeedMPH,PrecipitationIn,Events,Conditions,WindDirDegrees,DateUTC
12:53 AM,39.9,36.0,86,29.87,9.0,East,15.0,-,0.06,Rain,Light Rain,80,2013-04-14 05:53:00
1:53 AM,39.9,36.0,86,29.83,10.0,East,18.4,-,0.00,,Overcast,100,2013-04-14 06:53:00
2:53 AM,39.0,36.0,89,29.80,10.0,East,19.6,-,0.00,Rain,Light Rain,90,2013-04-14 07:53:00
3:53 AM,39.0,36.0,89,29.80,10.0,East,15.0,-,0.00,Rain,Light Rain,100,2013-04-14 08:53:00
4:53 AM,37.9,35.1,89,29.78,6.0,East,18.4,-,0.05,Rain,Rain,100,2013-04-14 09:53:00
5:53 AM,37.9,35.1,89,29.73,10.0,East,21.9,27.6,0.03,,Mostly Cloudy,90,2013-04-14 10:53:00
6:53 AM,37.9,35.1,89,29.69,10.0,East,24.2,-,N/A,,Overcast,90,2013-04-14 11:53:00
7:53 AM,39.0,36.0,89,29.68,10.0,East,21.9,27.6,0.00,,Overcast,100,2013-04-14 12:53:00
8:53 AM,41.0,37.9,89,29.65,10.0,East,25.3,33.4,N/A,,Mostly Cloudy,100,2013-04-14 13:53:00
9:53 AM,43.0,39.9,89,29.63,10.0,East,21.9,-,N/A,,Mostly Cloudy,100,2013-04-14 14:53:00
10:53 AM,46.0,43.0,89,29.60,10.0,ESE,19.6,-,0.00,Rain,Light Rain,110,2013-04-14 15:53:00
11:53 AM,51.1,46.9,86,29.53,10.0,East,25.3,-,0.00,,Clear,100,2013-04-14 16:53:00
12:53 PM,59.0,50.0,72,29.51,10.0,SE,15.0,-,N/A,,Scattered Clouds,130,2013-04-14 17:53:00
1:53 PM,62.1,51.1,67,29.48,10.0,SSE,11.5,-,0.01,Rain,Light Rain,150,2013-04-14 18:53:00
2:53 PM,63.0,52.0,67,29.45,10.0,SE,9.2,-,0.00,Rain,Light Rain,140,2013-04-14 19:53:00
3:53 PM,63.0,53.1,70,29.44,10.0,South,12.7,28.8,0.00,Rain,Light Rain,170,2013-04-14 20:53:00
4:53 PM,64.9,52.0,63,29.42,10.0,South,16.1,21.9,0.00,Rain,Light Rain,190,2013-04-14 21:53:00
5:53 PM,62.1,54.0,75,29.45,6.0,SSW,19.6,25.3,0.02,Rain,Rain,210,2013-04-14 22:53:00
6:46 PM,55.4,53.6,94,29.49,2.0,WSW,20.7,38.0,0.11,Rain,Rain,240,2013-04-14 23:46:00
6:53 PM,55.9,54.0,93,29.50,3.0,WSW,19.6,27.6,0.12,Rain,Rain,240,2013-04-14 23:53:00
7:53 PM,54.0,53.1,97,29.51,10.0,SSW,9.2,-,0.05,Rain,Light Rain,200,2013-04-15 00:53:00
8:53 PM,54.0,52.0,93,29.56,10.0,WSW,12.7,-,0.02,,Overcast,250,2013-04-15 01:53:00
9:26 PM,53.6,48.2,82,29.58,10.0,WNW,13.8,-,0.01,,Overcast,290,2013-04-15 02:26:00
9:53 PM,51.1,48.9,92,29.60,10.0,WNW,8.1,-,0.01,,Overcast,290,2013-04-15 02:53:00
10:53 PM,50.0,43.0,77,29.62,10.0,WNW,6.9,-,N/A,,Overcast,300,2013-04-15 03:53:00
11:53 PM,48.0,43.0,83,29.64,10.0,Calm,Calm,-,N/A,,Overcast,0,2013-04-15 04:53:00